Time;durP1;ratioP1;P1;durP2;ratioP2;P2;SDS_P1;SDS_P2;PMS_P1;PMS_P2;Temp;Humidity;BMP_temperature;BMP_pressure;BME280_temperature;BME280_humidity;BME280_pressure;Samples;Min_cycle;Max_cycle;Signal;HPM_P1;HPM_P2
2022/07/18 00:01:11;;;;;;;1.35;1.25;;;23.40;43.30;;;;;;5033032;28;20271;-61
2022/07/18 00:03:38;;;;;;;1.98;1.30;;;23.40;43.30;;;;;;5033565;28;20188;-61
2022/07/18 00:06:06;;;;;;;1.75;1.27;;;23.40;43.40;;;;;;5033092;28;20222;-61
2022/07/18 00:08:33;;;;;;;1.30;1.17;;;23.30;43.20;;;;;;5033065;28;20208;-61
2022/07/18 00:11:00;;;;;;;1.40;1.30;;;23.30;43.30;;;;;;5032882;28;20264;-61
2022/07/18 00:13:28;;;;;;;1.30;1.20;;;23.30;43.10;;;;;;5033098;28;20207;-61
2022/07/18 00:15:56;;;;;;;1.48;1.30;;;23.30;43.10;;;;;;5032830;28;20257;-61
2022/07/18 00:18:23;;;;;;;2.53;1.38;;;23.30;43.00;;;;;;5032855;28;20212;-61
2022/07/18 00:20:50;;;;;;;1.45;1.27;;;23.30;43.00;;;;;;5032706;28;20188;-61
2022/07/18 00:23:17;;;;;;;1.88;1.33;;;23.20;42.90;;;;;;5032687;28;20191;-61
2022/07/18 00:25:43;;;;;;;1.30;1.20;;;23.30;42.90;;;;;;5014996;28;20683;-62
2022/07/18 00:28:11;;;;;;;1.50;1.40;;;23.30;42.80;;;;;;5032637;28;20627;-61
2022/07/18 00:30:40;;;;;;;1.80;1.42;;;23.20;42.70;;;;;;5014920;28;20667;-61
2022/07/18 00:33:07;;;;;;;1.83;1.65;;;23.20;42.70;;;;;;5032494;28;20204;-61
2022/07/18 00:35:34;;;;;;;1.40;1.30;;;23.20;43.30;;;;;;5032582;28;20195;-61
2022/07/18 00:38:02;;;;;;;1.38;1.27;;;23.20;42.90;;;;;;5014708;28;20295;-61
2022/07/18 00:40:29;;;;;;;1.30;1.20;;;23.20;43.20;;;;;;5033189;28;20522;-61
2022/07/18 00:42:57;;;;;;;1.50;1.40;;;23.10;43.30;;;;;;5018429;28;20211;-61
2022/07/18 00:45:24;;;;;;;1.30;1.10;;;23.10;44.00;;;;;;5036514;28;20282;-61
2022/07/18 00:47:52;;;;;;;1.30;1.20;;;23.10;43.50;;;;;;5018418;28;20298;-61
2022/07/18 00:50:19;;;;;;;1.48;1.38;;;23.10;43.40;;;;;;5036202;28;20726;-61
2022/07/18 00:52:47;;;;;;;2.08;1.40;;;23.10;43.80;;;;;;5036007;28;20271;-62
2022/07/18 00:55:14;;;;;;;1.42;1.23;;;23.10;42.90;;;;;;5036073;28;20633;-61
2022/07/18 00:57:41;;;;;;;1.65;1.13;;;23.10;42.90;;;;;;5036128;28;20219;-61
2022/07/18 01:02:56;;;;;;;1.50;1.40;;;23.00;43.20;;;;;;5036147;28;20299;-61
2022/07/18 01:05:24;;;;;;;1.30;1.20;;;23.00;43.30;;;;;;5036245;28;20242;-61
2022/07/18 01:07:51;;;;;;;1.65;1.20;;;23.00;42.90;;;;;;5035998;28;20216;-61
2022/07/18 01:10:18;;;;;;;1.90;1.17;;;23.00;42.90;;;;;;5034661;28;20228;-61
2022/07/18 01:12:46;;;;;;;1.23;1.17;;;23.00;43.20;;;;;;5035830;28;20207;-61
2022/07/18 01:15:13;;;;;;;1.77;1.50;;;22.90;43.30;;;;;;5035794;28;20272;-61
2022/07/18 01:17:40;;;;;;;1.98;1.38;;;22.90;43.30;;;;;;5034823;28;20649;-61
2022/07/18 01:20:10;;;;;;;1.10;1.10;;;22.90;43.20;;;;;;5035481;28;20219;-61
2022/07/18 01:22:41;;;;;;;1.17;1.10;;;22.90;42.90;;;;;;5036029;28;20275;-61
2022/07/18 01:25:08;;;;;;;1.60;1.30;;;22.90;42.90;;;;;;5017801;28;20560;-61
2022/07/18 01:27:35;;;;;;;2.10;1.30;;;22.90;42.80;;;;;;5034983;28;20235;-61
2022/07/18 01:30:02;;;;;;;1.40;1.30;;;22.90;43.10;;;;;;5035606;28;20262;-61
2022/07/18 01:32:29;;;;;;;1.40;1.20;;;22.80;43.20;;;;;;5017923;28;20215;-61
2022/07/18 01:34:57;;;;;;;1.35;1.25;;;22.80;43.10;;;;;;5035500;28;20215;-61
2022/07/18 01:37:24;;;;;;;1.50;1.40;;;22.80;43.00;;;;;;5035645;28;20215;-61
2022/07/18 01:39:52;;;;;;;1.40;1.30;;;22.80;42.80;;;;;;5017631;28;20283;-61
2022/07/18 01:42:19;;;;;;;1.30;1.20;;;22.80;42.70;;;;;;5035330;28;20196;-61
2022/07/18 01:44:46;;;;;;;3.45;1.45;;;22.80;43.00;;;;;;5035604;28;20269;-61
2022/07/18 01:47:13;;;;;;;2.60;1.30;;;22.70;42.80;;;;;;5035435;28;20231;-61
2022/07/18 01:49:41;;;;;;;1.55;1.45;;;22.70;43.50;;;;;;5035112;28;20594;-61
2022/07/18 01:52:08;;;;;;;1.23;1.13;;;22.70;42.80;;;;;;5016910;28;20223;-62
2022/07/18 01:54:36;;;;;;;1.30;1.20;;;22.70;42.90;;;;;;5035133;28;20212;-61
2022/07/18 01:57:05;;;;;;;2.35;1.20;;;22.70;42.90;;;;;;5035172;28;20192;-61
2022/07/18 01:59:33;;;;;;;1.48;1.38;;;22.70;43.00;;;;;;5017284;28;20224;-61
2022/07/18 02:02:00;;;;;;;2.13;1.42;;;22.70;42.90;;;;;;5035276;28;20188;-61
2022/07/18 02:07:09;;;;;;;1.38;1.27;;;22.60;42.80;;;;;;5034055;28;20196;-62
2022/07/18 02:09:36;;;;;;;1.63;1.52;;;22.70;42.80;;;;;;5034943;28;20287;-62
2022/07/18 02:12:04;;;;;;;1.98;1.40;;;22.60;42.70;;;;;;5035012;28;20220;-61
2022/07/18 02:14:32;;;;;;;1.50;1.40;;;22.60;42.80;;;;;;5034636;28;20263;-61
2022/07/18 02:16:59;;;;;;;1.63;1.40;;;22.60;43.50;;;;;;5034664;28;20196;-60
2022/07/18 02:19:26;;;;;;;1.65;1.45;;;22.60;42.90;;;;;;5034769;28;20211;-61
2022/07/18 02:21:53;;;;;;;2.67;1.23;;;22.60;42.90;;;;;;5034555;28;20191;-61
2022/07/18 02:24:20;;;;;;;2.80;1.50;;;22.50;43.50;;;;;;5034451;28;20208;-61
2022/07/18 02:26:47;;;;;;;1.55;1.30;;;22.60;43.10;;;;;;5034617;28;20191;-61
2022/07/18 02:29:16;;;;;;;1.40;1.30;;;22.50;43.00;;;;;;5034356;28;20314;-61
2022/07/18 02:31:43;;;;;;;1.42;1.30;;;22.50;43.00;;;;;;5034371;28;20624;-61
2022/07/18 02:34:10;;;;;;;1.40;1.30;;;22.50;43.60;;;;;;5034327;28;20211;-61
2022/07/18 02:36:37;;;;;;;1.27;1.17;;;22.50;43.10;;;;;;5034230;28;20210;-61
2022/07/18 02:39:05;;;;;;;1.92;1.60;;;22.50;43.20;;;;;;5034110;28;20641;-61
2022/07/18 02:41:32;;;;;;;1.92;1.73;;;22.50;43.20;;;;;;5016459;28;20291;-61
2022/07/18 02:43:59;;;;;;;1.98;1.50;;;22.50;43.20;;;;;;5016218;28;20223;-61
2022/07/18 02:46:28;;;;;;;1.63;1.52;;;22.40;43.10;;;;;;5034003;28;20663;-61
2022/07/18 02:48:55;;;;;;;2.03;1.55;;;22.40;43.20;;;;;;5034012;28;20204;-61
2022/07/18 02:51:22;;;;;;;1.73;1.48;;;22.40;43.20;;;;;;5033766;28;20279;-61
2022/07/18 02:53:49;;;;;;;1.65;1.40;;;22.40;43.20;;;;;;5034189;28;20230;-61
2022/07/18 02:56:16;;;;;;;1.48;1.35;;;22.40;43.20;;;;;;5033888;28;20608;-61
2022/07/18 02:58:43;;;;;;;1.70;1.60;;;22.40;43.20;;;;;;5016030;28;20219;-61
2022/07/18 03:01:10;;;;;;;2.10;1.67;;;22.30;43.10;;;;;;5033811;28;20619;-61
2022/07/18 03:03:38;;;;;;;1.83;1.48;;;22.30;43.30;;;;;;5033163;28;20275;-62
2022/07/18 03:06:06;;;;;;;2.40;1.63;;;22.30;43.40;;;;;;5016176;28;20210;-61
2022/07/18 03:08:33;;;;;;;2.58;1.70;;;22.30;43.40;;;;;;5015949;28;20224;-61
2022/07/18 03:11:00;;;;;;;1.70;1.60;;;22.30;43.50;;;;;;5033617;28;20295;-61
2022/07/18 03:13:27;;;;;;;1.80;1.70;;;22.30;43.50;;;;;;5032331;28;20236;-61
2022/07/18 03:15:55;;;;;;;1.70;1.50;;;22.30;43.50;;;;;;5033558;28;20196;-61
2022/07/18 03:18:24;;;;;;;1.88;1.77;;;22.30;43.40;;;;;;5015728;28;20220;-61
2022/07/18 03:20:54;;;;;;;2.47;1.80;;;22.30;43.50;;;;;;5033728;28;20303;-61
2022/07/18 03:23:21;;;;;;;2.08;1.88;;;22.30;43.50;;;;;;5033427;28;20218;-61
2022/07/18 03:25:48;;;;;;;1.83;1.70;;;22.30;43.40;;;;;;5033392;28;20220;-61
2022/07/18 03:28:15;;;;;;;2.60;2.00;;;22.30;43.40;;;;;;5033279;28;20195;-61
2022/07/18 03:30:43;;;;;;;2.05;1.92;;;22.30;43.40;;;;;;5015522;28;20202;-61
2022/07/18 03:33:11;;;;;;;2.50;2.00;;;22.30;43.40;;;;;;5033159;28;20212;-61
2022/07/18 03:35:38;;;;;;;1.95;1.80;;;22.30;43.50;;;;;;5015512;28;20286;-61
2022/07/18 03:38:06;;;;;;;2.42;1.88;;;22.30;43.40;;;;;;5033187;28;20668;-61
2022/07/18 03:40:34;;;;;;;2.47;2.17;;;22.30;43.40;;;;;;5033191;28;20195;-61
2022/07/18 03:43:01;;;;;;;1.88;1.77;;;22.30;43.50;;;;;;5033048;28;20198;-61
2022/07/18 03:45:28;;;;;;;2.65;2.00;;;22.30;43.60;;;;;;5033034;28;20286;-61
2022/07/18 03:47:56;;;;;;;2.42;2.10;;;22.30;43.60;;;;;;5033017;28;20326;-61
2022/07/18 03:50:23;;;;;;;3.38;2.00;;;22.30;43.60;;;;;;5015223;28;20224;-61
2022/07/18 03:52:50;;;;;;;2.20;1.80;;;22.30;43.60;;;;;;5032901;28;20238;-61
2022/07/18 03:55:18;;;;;;;2.03;1.83;;;22.30;43.70;;;;;;5032946;28;20215;-61
2022/07/18 03:57:45;;;;;;;2.22;2.10;;;22.30;43.70;;;;;;5033109;28;20254;-61
2022/07/18 04:00:13;;;;;;;2.28;2.08;;;22.30;43.80;;;;;;5032772;28;20273;-61
2022/07/18 04:02:40;;;;;;;2.05;1.80;;;22.30;43.90;;;;;;5033674;28;20651;-61
2022/07/18 04:05:08;;;;;;;2.13;1.92;;;22.30;44.00;;;;;;5033136;28;20544;-61
2022/07/18 04:08:00;;;;;;;2.00;1.88;;;22.30;44.00;;;;;;5032899;28;20186;-61
2022/07/18 04:10:29;;;;;;;2.47;2.28;;;22.20;44.00;;;;;;5032853;28;20246;-61
2022/07/18 04:12:56;;;;;;;2.13;2.00;;;22.20;44.10;;;;;;5032839;28;20266;-61
2022/07/18 04:15:24;;;;;;;1.90;1.80;;;22.20;44.20;;;;;;5034779;28;20196;-61
2022/07/18 04:17:51;;;;;;;3.15;2.15;;;22.30;44.30;;;;;;5036977;28;20192;-60
2022/07/18 04:20:19;;;;;;;2.33;2.00;;;22.30;44.40;;;;;;5036643;28;20298;-61
2022/07/18 04:22:48;;;;;;;2.30;2.10;;;22.20;44.30;;;;;;5036707;28;20206;-60
2022/07/18 04:25:15;;;;;;;2.38;2.10;;;22.20;44.40;;;;;;5036578;28;20279;-61
2022/07/18 04:27:44;;;;;;;1.95;1.85;;;22.20;44.40;;;;;;5036686;28;20271;-61
2022/07/18 04:30:11;;;;;;;2.20;2.00;;;22.20;44.50;;;;;;5018681;28;20306;-61
2022/07/18 04:32:38;;;;;;;2.40;2.20;;;22.30;44.60;;;;;;5036829;28;20188;-61
2022/07/18 04:35:06;;;;;;;2.40;2.20;;;22.30;44.60;;;;;;5036359;28;20212;-61
2022/07/18 04:37:33;;;;;;;2.33;2.00;;;22.30;44.70;;;;;;5036417;28;20538;-61
2022/07/18 04:40:00;;;;;;;2.38;2.17;;;22.30;44.70;;;;;;5036372;28;20238;-61
2022/07/18 04:42:30;;;;;;;2.72;1.98;;;22.30;44.80;;;;;;5036325;28;20207;-61
2022/07/18 04:44:59;;;;;;;2.30;2.10;;;22.30;44.80;;;;;;5036247;28;20275;-61
2022/07/18 04:47:26;;;;;;;2.40;2.20;;;22.30;44.80;;;;;;5036486;28;20562;-61
2022/07/18 04:49:53;;;;;;;2.40;2.20;;;22.40;45.50;;;;;;5036440;28;20691;-61
2022/07/18 04:52:20;;;;;;;2.20;2.00;;;22.40;44.70;;;;;;5036443;28;20222;-61
2022/07/18 04:54:48;;;;;;;2.35;2.15;;;22.50;44.60;;;;;;5036136;28;20254;-61
2022/07/18 04:57:15;;;;;;;2.85;2.20;;;22.70;44.30;;;;;;5036297;28;20188;-61
2022/07/18 04:59:42;;;;;;;2.30;2.10;;;23.00;44.10;;;;;;5018473;28;20227;-61
2022/07/18 05:02:11;;;;;;;2.30;2.08;;;23.20;43.80;;;;;;5039703;28;20201;-61
2022/07/18 05:04:38;;;;;;;2.50;2.30;;;23.40;43.30;;;;;;5018956;28;20238;-61
2022/07/18 05:07:06;;;;;;;2.78;2.40;;;23.70;43.00;;;;;;5036149;28;20725;-61
2022/07/18 05:09:33;;;;;;;2.58;2.28;;;23.80;42.60;;;;;;5035814;28;20631;-61
2022/07/18 05:12:01;;;;;;;2.65;1.98;;;24.00;42.40;;;;;;5035953;28;20214;-61
2022/07/18 05:14:29;;;;;;;2.50;2.20;;;24.20;42.20;;;;;;5035990;28;20212;-61
2022/07/18 05:16:56;;;;;;;2.42;2.22;;;24.20;41.80;;;;;;5035921;28;20250;-61
2022/07/18 05:19:24;;;;;;;3.13;2.22;;;24.40;41.60;;;;;;5036022;28;20246;-61
2022/07/18 05:21:51;;;;;;;2.67;2.42;;;24.50;41.40;;;;;;5036165;28;20195;-61
2022/07/18 05:24:18;;;;;;;2.85;2.42;;;24.60;41.80;;;;;;5036262;28;20223;-61
2022/07/18 05:26:46;;;;;;;2.50;2.30;;;24.80;41.10;;;;;;5036708;28;20192;-61
2022/07/18 05:29:13;;;;;;;2.40;2.22;;;24.90;40.90;;;;;;5036211;28;20203;-61
2022/07/18 05:31:41;;;;;;;2.53;2.33;;;25.00;40.70;;;;;;5035869;28;20535;-61
2022/07/18 05:34:08;;;;;;;2.60;2.40;;;25.10;40.60;;;;;;5035613;28;20295;-61
2022/07/18 05:36:37;;;;;;;3.35;2.53;;;25.20;40.40;;;;;;5035417;28;20192;-61
2022/07/18 05:39:04;;;;;;;3.03;2.40;;;25.30;40.20;;;;;;5035473;28;20291;-61
2022/07/18 05:41:32;;;;;;;2.90;2.45;;;25.40;40.00;;;;;;5008586;23;20269;-68
2022/07/18 05:43:59;;;;;;;2.72;2.20;;;25.50;39.90;;;;;;4975851;28;20202;-68
2022/07/18 05:46:25;;;;;;;3.05;2.40;;;25.60;39.80;;;;;;4975806;28;20202;-68
2022/07/18 05:48:53;;;;;;;2.50;2.30;;;25.70;39.60;;;;;;4975451;28;20214;-68
2022/07/18 05:51:20;;;;;;;2.45;2.25;;;25.80;39.50;;;;;;4976602;28;20247;-68
2022/07/18 05:53:50;;;;;;;2.70;2.20;;;25.80;39.30;;;;;;4976583;28;20206;-68
2022/07/18 05:56:17;;;;;;;2.80;2.40;;;25.90;39.10;;;;;;4975419;28;20198;-68
2022/07/18 05:58:44;;;;;;;3.78;2.60;;;26.00;39.00;;;;;;4975362;28;20296;-68
2022/07/18 06:01:16;;;;;;;3.05;2.28;;;26.10;38.90;;;;;;4975324;28;20218;-70
2022/07/18 06:03:43;;;;;;;2.50;2.30;;;26.20;38.70;;;;;;4975699;28;20265;-68
2022/07/18 06:06:10;;;;;;;2.60;2.40;;;26.20;38.60;;;;;;4975393;28;20663;-68
2022/07/18 06:08:37;;;;;;;3.53;2.38;;;26.30;38.50;;;;;;4975223;28;20202;-68
2022/07/18 06:11:08;;;;;;;3.78;2.65;;;26.30;38.30;;;;;;4975081;28;20218;-68
2022/07/18 06:13:36;;;;;;;4.35;2.60;;;26.40;38.30;;;;;;4975300;28;20249;-68
2022/07/18 06:16:03;;;;;;;3.00;2.70;;;26.50;38.20;;;;;;4974929;28;20608;-68
2022/07/18 06:18:30;;;;;;;2.72;2.30;;;26.50;38.00;;;;;;4976310;28;20264;-67
2022/07/18 06:20:57;;;;;;;2.30;2.10;;;26.60;37.90;;;;;;4975268;28;20225;-68
2022/07/18 06:23:25;;;;;;;2.53;2.33;;;26.60;37.90;;;;;;4976458;28;20220;-68
2022/07/18 06:25:51;;;;;;;2.05;1.92;;;26.70;37.80;;;;;;4975131;28;20194;-68
2022/07/18 06:28:20;;;;;;;3.97;2.15;;;26.80;37.80;;;;;;4974989;28;20199;-68
2022/07/18 06:30:47;;;;;;;2.50;2.30;;;26.80;37.60;;;;;;4974831;28;20218;-68
2022/07/18 06:33:14;;;;;;;3.00;2.10;;;26.90;37.50;;;;;;4975053;28;20202;-67
2022/07/18 06:35:41;;;;;;;2.05;1.90;;;26.90;37.40;;;;;;4974862;28;20594;-67
2022/07/18 06:38:08;;;;;;;2.78;2.25;;;27.00;37.20;;;;;;4974743;28;20202;-68
2022/07/18 06:40:35;;;;;;;2.55;2.08;;;27.10;37.20;;;;;;4974558;28;20234;-68
2022/07/18 06:43:02;;;;;;;2.20;2.10;;;27.10;37.10;;;;;;4975050;28;20198;-68
2022/07/18 06:45:31;;;;;;;2.95;2.30;;;27.20;37.00;;;;;;4976261;28;20587;-67
2022/07/18 06:47:58;;;;;;;2.30;2.10;;;27.20;36.90;;;;;;4975055;28;20202;-68
2022/07/18 06:50:25;;;;;;;2.78;2.00;;;27.30;36.80;;;;;;4975299;28;20309;-68
2022/07/18 06:52:52;;;;;;;2.28;2.08;;;27.30;37.30;;;;;;4975218;28;20202;-68
2022/07/18 06:55:19;;;;;;;2.30;2.10;;;27.30;36.60;;;;;;4976032;28;20316;-69
2022/07/18 06:57:46;;;;;;;2.25;2.05;;;27.40;36.60;;;;;;4975864;28;20217;-66
2022/07/18 07:00:15;;;;;;;1.92;1.83;;;27.50;36.50;;;;;;4974913;28;20217;-68
2022/07/18 07:02:44;;;;;;;2.30;2.10;;;27.50;36.40;;;;;;4974835;28;20205;-67
2022/07/18 07:05:11;;;;;;;2.40;2.20;;;27.60;36.40;;;;;;4974538;28;20263;-68
2022/07/18 07:07:39;;;;;;;2.10;2.00;;;27.70;36.30;;;;;;4975936;28;20194;-68
2022/07/18 07:10:07;;;;;;;2.40;2.20;;;27.70;36.20;;;;;;4974071;28;20316;-67
2022/07/18 07:12:39;;;;;;;2.38;2.10;;;27.70;36.10;;;;;;4974607;28;20201;-68
2022/07/18 07:15:08;;;;;;;2.45;2.00;;;27.80;36.60;;;;;;4974628;28;20219;-68
2022/07/18 07:17:35;;;;;;;2.35;1.90;;;27.80;35.90;;;;;;4974280;28;20217;-68
2022/07/18 07:20:05;;;;;;;2.20;2.00;;;27.90;35.80;;;;;;4973959;28;20256;-68
2022/07/18 07:22:33;;;;;;;2.17;1.98;;;27.90;35.70;;;;;;4974164;28;20198;-68
2022/07/18 07:24:59;;;;;;;2.13;2.00;;;28.00;35.60;;;;;;4974019;28;20650;-68
2022/07/18 07:27:26;;;;;;;1.88;1.70;;;28.00;35.50;;;;;;4973711;28;20681;-68
2022/07/18 07:29:53;;;;;;;2.10;1.90;;;28.10;35.50;;;;;;4975048;28;20218;-68
2022/07/18 07:32:20;;;;;;;2.22;2.03;;;28.10;35.30;;;;;;4975090;28;20218;-68
2022/07/18 07:34:47;;;;;;;2.00;1.90;;;28.20;35.30;;;;;;4973679;28;20722;-68
2022/07/18 07:37:16;;;;;;;1.80;1.70;;;28.30;35.20;;;;;;4973890;28;20205;-68
2022/07/18 07:39:46;;;;;;;2.10;1.90;;;28.30;35.10;;;;;;4974037;28;20209;-68
2022/07/18 07:42:13;;;;;;;2.20;2.00;;;28.30;35.00;;;;;;4973609;28;20627;-68
2022/07/18 07:44:40;;;;;;;2.13;1.95;;;28.40;34.90;;;;;;4974690;28;20196;-67
2022/07/18 07:47:07;;;;;;;2.20;2.00;;;28.50;35.50;;;;;;4973474;28;20197;-68
2022/07/18 07:49:34;;;;;;;1.88;1.77;;;28.50;34.70;;;;;;4972988;28;20209;-67
2022/07/18 07:52:02;;;;;;;1.98;1.77;;;28.50;34.60;;;;;;4974943;28;20625;-68
2022/07/18 07:54:30;;;;;;;2.35;1.90;;;28.60;34.60;;;;;;4973270;28;20221;-68
2022/07/18 07:56:57;;;;;;;2.13;2.00;;;28.60;35.20;;;;;;4973280;28;20202;-68
2022/07/18 07:59:24;;;;;;;2.10;1.73;;;28.70;34.60;;;;;;4974368;28;20667;-68
2022/07/18 08:01:51;;;;;;;2.00;1.80;;;28.70;34.40;;;;;;4973254;28;20217;-68
2022/07/18 08:04:18;;;;;;;2.00;1.90;;;28.70;34.40;;;;;;4974500;28;20189;-68
2022/07/18 08:06:45;;;;;;;2.45;1.90;;;28.80;34.30;;;;;;4973172;28;20732;-69
2022/07/18 08:09:13;;;;;;;2.08;1.88;;;28.80;34.30;;;;;;4973144;28;20264;-68
2022/07/18 08:11:41;;;;;;;2.20;2.00;;;28.80;34.30;;;;;;4973097;28;20228;-69
2022/07/18 08:14:08;;;;;;;1.90;1.80;;;28.80;34.30;;;;;;4972983;28;20281;-68
2022/07/18 08:16:35;;;;;;;2.08;1.90;;;28.80;34.30;;;;;;4973113;28;20205;-68
2022/07/18 08:19:03;;;;;;;2.13;1.92;;;28.80;34.20;;;;;;4973227;28;20201;-68
2022/07/18 08:21:30;;;;;;;3.45;2.10;;;28.90;34.30;;;;;;4974661;28;20221;-68
2022/07/18 08:23:57;;;;;;;3.70;2.35;;;28.80;34.50;;;;;;4973030;28;20197;-67
2022/07/18 08:26:24;;;;;;;4.03;2.45;;;28.80;34.30;;;;;;4972929;28;20562;-68
2022/07/18 08:28:53;;;;;;;3.72;2.15;;;28.90;34.60;;;;;;4972925;28;20256;-69
2022/07/18 08:31:19;;;;;;;3.90;2.20;;;28.80;34.50;;;;;;4972707;28;20221;-68
2022/07/18 08:33:47;;;;;;;3.42;2.45;;;28.80;34.50;;;;;;4972765;28;20208;-68
2022/07/18 08:36:14;;;;;;;3.58;2.30;;;28.90;35.10;;;;;;4972951;28;20217;-67
2022/07/18 08:38:41;;;;;;;3.45;2.50;;;28.90;34.70;;;;;;4973022;28;20212;-68
2022/07/18 08:41:08;;;;;;;4.03;2.38;;;28.80;34.80;;;;;;4972762;28;20737;-67
2022/07/18 08:43:35;;;;;;;2.78;2.50;;;28.90;35.20;;;;;;4974137;28;20205;-68
2022/07/18 08:46:04;;;;;;;5.20;2.75;;;28.90;35.10;;;;;;4972832;28;20202;-67
2022/07/18 08:48:32;;;;;;;2.83;2.35;;;28.90;35.10;;;;;;4972828;28;20292;-68
2022/07/18 08:51:00;;;;;;;3.75;2.22;;;28.80;35.00;;;;;;4972697;28;20312;-68
2022/07/18 08:53:27;;;;;;;5.90;2.53;;;28.90;34.70;;;;;;4974260;28;20197;-68
2022/07/18 08:55:54;;;;;;;3.35;2.35;;;28.90;35.00;;;;;;4973864;28;20248;-68
2022/07/18 08:58:22;;;;;;;4.00;2.35;;;28.80;35.90;;;;;;4973345;28;20225;-67
2022/07/18 09:00:48;;;;;;;3.80;2.40;;;28.80;35.20;;;;;;4972867;28;20228;-67
2022/07/18 09:03:17;;;;;;;4.55;2.45;;;28.80;34.80;;;;;;4977448;28;20189;-68
2022/07/18 09:05:44;;;;;;;3.47;2.40;;;28.80;35.40;;;;;;4976419;28;20541;-68
2022/07/18 09:08:12;;;;;;;4.18;2.58;;;28.80;35.30;;;;;;4976116;28;20284;-68
2022/07/18 09:10:44;;;;;;;2.70;2.50;;;28.90;35.20;;;;;;4975930;28;20698;-68
2022/07/18 09:13:12;;;;;;;4.30;2.50;;;28.80;34.80;;;;;;4976046;28;20208;-67
2022/07/18 09:15:56;;;;;;;3.88;2.20;;;28.80;34.70;;;;;;4975987;28;20224;-68
2022/07/18 09:18:29;;;;;;;4.22;2.50;;;28.80;34.70;;;;;;4976186;28;20204;-68
2022/07/18 09:21:00;;;;;;;3.92;2.40;;;28.80;34.30;;;;;;4977356;28;20292;-68
2022/07/18 09:23:28;;;;;;;3.83;2.50;;;28.70;34.60;;;;;;4976074;28;20206;-68
2022/07/18 09:25:56;;;;;;;5.40;2.88;;;28.70;35.50;;;;;;4977325;28;20197;-68
2022/07/18 09:28:23;;;;;;;3.95;2.40;;;28.70;35.30;;;;;;4975858;28;20208;-68
2022/07/18 09:30:50;;;;;;;4.60;2.65;;;28.60;35.30;;;;;;4976967;28;20244;-68
2022/07/18 09:33:17;;;;;;;3.97;2.15;;;28.50;35.50;;;;;;4975736;28;20194;-68
2022/07/18 09:35:46;;;;;;;3.75;2.20;;;28.60;36.00;;;;;;4975553;28;20228;-67
2022/07/18 09:38:15;;;;;;;3.20;2.38;;;28.60;35.30;;;;;;4975655;28;20202;-68
2022/07/18 09:40:43;;;;;;;2.88;2.30;;;28.60;34.50;;;;;;4976702;28;20233;-66
2022/07/18 09:43:12;;;;;;;5.47;2.20;;;28.80;34.00;;;;;;4977189;28;20587;-68
2022/07/18 09:45:39;;;;;;;4.55;2.42;;;28.80;33.60;;;;;;4975718;28;20193;-69
2022/07/18 09:48:08;;;;;;;3.03;2.33;;;28.80;33.60;;;;;;4975515;28;20201;-69
2022/07/18 09:50:36;;;;;;;2.40;2.20;;;28.90;33.60;;;;;;4976673;28;20209;-69
2022/07/18 09:53:10;;;;;;;2.33;2.08;;;28.80;32.80;;;;;;4976160;28;20232;-68
2022/07/18 09:55:37;;;;;;;2.30;2.10;;;28.80;32.80;;;;;;4975632;28;20582;-68
2022/07/18 09:58:05;;;;;;;3.08;2.22;;;28.90;33.00;;;;;;4976872;28;20268;-68
2022/07/18 10:00:35;;;;;;;3.67;2.20;;;28.90;32.70;;;;;;4975244;28;20225;-68
2022/07/18 10:03:02;;;;;;;2.05;1.80;;;28.90;32.80;;;;;;4975648;28;20297;-68
2022/07/18 10:05:29;;;;;;;3.05;2.00;;;28.90;32.00;;;;;;4975309;28;20193;-69
2022/07/18 10:07:57;;;;;;;2.13;2.03;;;28.90;31.90;;;;;;4976483;28;20572;-68
2022/07/18 10:10:25;;;;;;;3.47;1.88;;;29.00;32.00;;;;;;4975557;28;20315;-68
2022/07/18 10:12:54;;;;;;;2.85;1.90;;;28.90;31.60;;;;;;4976094;28;20200;-68
2022/07/18 10:15:23;;;;;;;2.95;2.00;;;28.90;31.60;;;;;;4976442;28;20713;-68
2022/07/18 10:17:50;;;;;;;2.20;2.00;;;29.00;31.70;;;;;;4975330;28;20685;-68
2022/07/18 10:20:17;;;;;;;1.95;1.85;;;29.00;31.70;;;;;;4976647;28;20592;-68
2022/07/18 10:22:44;;;;;;;2.67;2.00;;;29.00;31.70;;;;;;4976386;28;20271;-68
2022/07/18 10:25:11;;;;;;;2.03;1.77;;;29.00;31.70;;;;;;4975264;28;20568;-68
2022/07/18 10:27:49;;;;;;;4.25;2.30;;;29.00;31.80;;;;;;4975211;28;20274;-68
2022/07/18 10:30:19;;;;;;;2.20;2.00;;;28.90;32.00;;;;;;4974945;28;20213;-68
2022/07/18 10:32:48;;;;;;;4.07;2.17;;;28.90;32.00;;;;;;4974644;28;20288;-68
2022/07/18 10:35:16;;;;;;;2.25;2.00;;;28.80;32.00;;;;;;4976444;28;20245;-68
2022/07/18 10:37:44;;;;;;;2.97;2.15;;;28.80;32.70;;;;;;4974984;28;20197;-68
2022/07/18 10:40:28;;;;;;;2.70;1.98;;;28.60;32.50;;;;;;4974848;28;20214;-68
2022/07/18 10:43:33;;;;;;;2.20;2.00;;;28.60;32.60;;;;;;4976421;28;20182;-68
2022/07/18 10:46:01;;;;;;;2.13;1.88;;;28.60;32.50;;;;;;4976792;28;20200;-68
2022/07/18 10:48:47;;;;;;;2.10;1.80;;;28.60;32.30;;;;;;4974966;28;20202;-68
2022/07/18 10:51:16;;;;;;;3.10;1.80;;;28.60;32.30;;;;;;4974647;28;20221;-68
2022/07/18 10:54:11;;;;;;;3.03;1.85;;;28.60;32.20;;;;;;4975859;28;20193;-67
2022/07/18 10:57:10;;;;;;;3.03;2.00;;;28.60;32.10;;;;;;4974535;28;20213;-68
2022/07/18 11:00:01;;;;;;;1.70;1.60;;;28.50;31.80;;;;;;4974299;28;20272;-68
2022/07/18 11:02:35;;;;;;;2.10;1.90;;;28.50;31.80;;;;;;4975441;28;20232;-68
2022/07/18 11:05:03;;;;;;;1.98;1.65;;;28.50;31.80;;;;;;4974270;28;20197;-68
2022/07/18 11:07:30;;;;;;;2.20;1.65;;;28.50;31.80;;;;;;4974446;28;20220;-68
2022/07/18 11:09:57;;;;;;;1.90;1.73;;;28.40;31.80;;;;;;4975497;28;20190;-68
2022/07/18 11:12:29;;;;;;;1.85;1.75;;;28.40;31.80;;;;;;4974391;28;20252;-68
2022/07/18 11:15:02;;;;;;;1.92;1.70;;;28.40;31.80;;;;;;4975814;28;20552;-68
2022/07/18 11:17:54;;;;;;;1.85;1.75;;;28.30;31.70;;;;;;4973970;28;20202;-68
2022/07/18 11:20:26;;;;;;;1.50;1.40;;;28.30;31.70;;;;;;4973740;28;20268;-68
2022/07/18 11:22:53;;;;;;;1.80;1.70;;;28.30;31.80;;;;;;4973648;28;20663;-68
2022/07/18 11:25:20;;;;;;;1.70;1.60;;;28.20;32.20;;;;;;4973223;28;20206;-68
2022/07/18 11:27:47;;;;;;;1.70;1.58;;;28.20;31.50;;;;;;4974882;28;20212;-68
2022/07/18 11:30:18;;;;;;;1.63;1.52;;;28.10;31.70;;;;;;4973540;28;20595;-68
2022/07/18 11:32:45;;;;;;;3.13;1.80;;;28.10;31.80;;;;;;4973746;28;20189;-68
2022/07/18 11:35:13;;;;;;;1.60;1.50;;;28.10;31.90;;;;;;4973610;28;20233;-68
2022/07/18 11:37:46;;;;;;;1.60;1.50;;;28.00;31.80;;;;;;4973548;28;20205;-68
2022/07/18 11:40:14;;;;;;;2.03;1.50;;;28.10;32.50;;;;;;4974882;28;20296;-68
2022/07/18 11:42:41;;;;;;;1.80;1.70;;;28.10;31.90;;;;;;4975215;28;20649;-68
2022/07/18 11:45:10;;;;;;;1.95;1.70;;;28.10;31.80;;;;;;4973369;28;20204;-68
2022/07/18 11:47:40;;;;;;;1.70;1.60;;;28.10;31.90;;;;;;4973292;28;20201;-68
2022/07/18 11:50:08;;;;;;;3.10;2.05;;;28.00;31.40;;;;;;4973214;28;20240;-68
2022/07/18 11:52:35;;;;;;;1.70;1.60;;;28.00;31.80;;;;;;4974766;28;20198;-67
2022/07/18 11:55:03;;;;;;;3.33;1.90;;;27.90;31.70;;;;;;4973286;28;20280;-68
2022/07/18 11:57:31;;;;;;;2.30;2.10;;;27.90;31.90;;;;;;4973257;28;20217;-68
2022/07/18 11:59:58;;;;;;;1.60;1.50;;;27.90;32.00;;;;;;4973149;28;20209;-68
2022/07/18 12:03:02;;;;;;;1.60;1.50;;;27.80;31.90;;;;;;4973353;28;20201;-67
2022/07/18 12:05:35;;;;;;;2.53;1.75;;;27.80;32.00;;;;;;4973231;28;20655;-68
2022/07/18 12:08:02;;;;;;;1.83;1.73;;;27.70;32.10;;;;;;4973294;28;20635;-67
2022/07/18 12:10:29;;;;;;;1.98;1.65;;;27.70;32.20;;;;;;4973252;28;20236;-67
2022/07/18 12:12:55;;;;;;;2.08;1.80;;;27.70;32.20;;;;;;4973465;28;20208;-68
2022/07/18 12:15:23;;;;;;;3.08;1.85;;;27.60;32.40;;;;;;4973004;28;20205;-68
2022/07/18 12:17:50;;;;;;;3.05;1.77;;;27.60;32.80;;;;;;4973132;28;20248;-68
2022/07/18 12:20:20;;;;;;;1.88;1.77;;;27.60;32.80;;;;;;4973176;28;20225;-67
2022/07/18 12:23:08;;;;;;;1.98;1.80;;;27.60;32.80;;;;;;4974367;28;20276;-68
2022/07/18 12:25:38;;;;;;;1.80;1.70;;;27.60;33.10;;;;;;4974997;28;20196;-68
2022/07/18 12:28:15;;;;;;;1.70;1.60;;;27.50;32.80;;;;;;4973274;28;20197;-68
2022/07/18 12:30:42;;;;;;;1.98;1.73;;;27.50;33.20;;;;;;4974270;28;20212;-67
2022/07/18 12:33:10;;;;;;;2.35;1.90;;;27.50;33.30;;;;;;4978739;28;20280;-68
2022/07/18 12:35:37;;;;;;;1.85;1.75;;;27.50;33.20;;;;;;4977427;28;20392;-68
2022/07/18 12:38:05;;;;;;;2.03;1.90;;;27.50;33.90;;;;;;4978708;28;20671;-67
2022/07/18 12:40:47;;;;;;;2.03;1.80;;;27.50;33.20;;;;;;4977824;28;20229;-69
2022/07/18 12:43:15;;;;;;;4.80;1.90;;;27.60;33.70;;;;;;4979184;28;20189;-69
2022/07/18 12:45:42;;;;;;;2.63;1.65;;;27.60;33.30;;;;;;4977838;28;20205;-68
2022/07/18 12:48:12;;;;;;;2.58;1.70;;;27.60;33.30;;;;;;4977325;28;20232;-68
2022/07/18 12:50:40;;;;;;;2.03;1.85;;;27.70;33.40;;;;;;4977561;28;20217;-68
2022/07/18 12:53:06;;;;;;;2.97;1.80;;;27.70;33.20;;;;;;4976886;28;20284;-69
2022/07/18 12:55:33;;;;;;;1.98;1.83;;;27.70;33.30;;;;;;4976647;28;20198;-68
2022/07/18 12:58:02;;;;;;;3.60;1.70;;;27.70;32.90;;;;;;4976523;28;20658;-69
2022/07/18 13:00:29;;;;;;;2.63;1.77;;;27.70;33.30;;;;;;4976513;28;20224;-68